Time;durP1;ratioP1;P1;durP2;ratioP2;P2;SDS_P1;SDS_P2;PMS_P1;PMS_P2;Temp;Humidity;BMP_temperature;BMP_pressure;BME280_temperature;BME280_humidity;BME280_pressure;Samples;Min_cycle;Max_cycle;Signal;HPM_P1;HPM_P2
2021/01/27 00:02:05;;;;;;;;;;;19.00;57.10;;;;;;5094100;28;1261;-69
2021/01/27 00:04:30;;;;;;;;;;;19.00;57.10;;;;;;5092646;28;1307;-68
2021/01/27 00:06:56;;;;;;;;;;;19.00;57.10;;;;;;5093826;28;1411;-68
2021/01/27 00:09:21;;;;;;;;;;;19.00;57.10;;;;;;5093664;28;1310;-68
2021/01/27 00:11:46;;;;;;;;;;;19.00;57.10;;;;;;5093873;28;1957;-68
2021/01/27 00:14:12;;;;;;;;;;;19.00;57.20;;;;;;5093032;28;1350;-70
2021/01/27 00:16:37;;;;;;;;;;;19.00;57.20;;;;;;5093535;28;1296;-69
2021/01/27 00:19:03;;;;;;;;;;;18.90;57.10;;;;;;5093487;28;1365;-69
2021/01/27 00:21:29;;;;;;;;;;;18.90;57.10;;;;;;5093801;28;1277;-68
2021/01/27 00:23:54;;;;;;;;;;;18.90;57.10;;;;;;5093302;28;1278;-69
2021/01/27 00:26:20;;;;;;;;;;;18.90;57.10;;;;;;5080797;28;1291;-69
2021/01/27 00:28:45;;;;;;;;;;;19.00;57.20;;;;;;5073302;28;1317;-69
2021/01/27 00:31:11;;;;;;;;;;;18.90;57.20;;;;;;5073592;28;1415;-69
2021/01/27 00:33:36;;;;;;;;;;;18.90;57.20;;;;;;5073214;28;1902;-68
2021/01/27 00:36:02;;;;;;;;;;;18.90;57.20;;;;;;5071808;28;1383;-68
2021/01/27 00:38:27;;;;;;;;;;;18.90;57.20;;;;;;5073104;28;1298;-67
2021/01/27 00:40:53;;;;;;;;;;;18.90;57.20;;;;;;5071916;28;1123;-68
2021/01/27 00:43:18;;;;;;;;;;;18.90;57.20;;;;;;5072005;28;1352;-66
2021/01/27 00:45:43;;;;;;;;;;;19.00;57.30;;;;;;5072854;28;1345;-67
2021/01/27 00:48:09;;;;;;;;;;;18.90;57.20;;;;;;5073042;28;1290;-68
2021/01/27 00:50:35;;;;;;;;;;;18.90;57.20;;;;;;5073113;28;1298;-68
2021/01/27 00:53:00;;;;;;;;;;;18.90;57.30;;;;;;5054791;28;1906;-68
2021/01/27 00:55:26;;;;;;;;;;;18.90;57.30;;;;;;5072621;28;1377;-68
2021/01/27 00:57:52;;;;;;;;;;;18.90;57.30;;;;;;5080953;28;1106;-68
2021/01/27 01:00:18;;;;;;;;;;;18.90;57.30;;;;;;5093069;28;1118;-68
2021/01/27 01:02:44;;;;;;;;;;;18.90;57.30;;;;;;5095120;28;1292;-69
2021/01/27 01:05:10;;;;;;;;;;;18.90;57.30;;;;;;5115974;28;1396;-69
2021/01/27 01:07:36;;;;;;;;;;;19.00;57.30;;;;;;5084283;28;1149;-67
2021/01/27 01:10:03;;;;;;;;;;;18.90;57.30;;;;;;5088057;28;1455;-67
2021/01/27 01:12:28;;;;;;;;;;;18.90;57.30;;;;;;5092847;28;1901;-67
2021/01/27 01:14:53;;;;;;;;;;;18.90;57.30;;;;;;5092570;28;1368;-67
2021/01/27 01:17:19;;;;;;;;;;;18.90;57.30;;;;;;5092919;28;1042;-67
2021/01/27 01:19:44;;;;;;;;;;;18.90;57.30;;;;;;5092917;28;1322;-67
2021/01/27 01:22:10;;;;;;;;;;;18.90;57.30;;;;;;5092706;28;1344;-67
2021/01/27 01:24:35;;;;;;;;;;;18.90;57.30;;;;;;5092685;28;1320;-66
2021/01/27 01:27:01;;;;;;;;;;;18.90;57.30;;;;;;5074398;28;1225;-66
2021/01/27 01:29:26;;;;;;;;;;;18.90;57.30;;;;;;5072865;28;1404;-66
2021/01/27 01:31:51;;;;;;;;;;;18.90;57.30;;;;;;5074832;28;1961;-66
2021/01/27 01:34:17;;;;;;;;;;;18.90;57.30;;;;;;5076554;28;1361;-66
2021/01/27 01:36:42;;;;;;;;;;;18.90;57.30;;;;;;5076369;28;1382;-66
2021/01/27 01:39:08;;;;;;;;;;;18.90;57.40;;;;;;5076655;28;1340;-66
2021/01/27 01:41:33;;;;;;;;;;;18.90;57.30;;;;;;5076451;28;1388;-66
2021/01/27 01:43:59;;;;;;;;;;;18.90;57.40;;;;;;5076321;28;1330;-66
2021/01/27 01:46:24;;;;;;;;;;;18.90;57.40;;;;;;5076544;28;1324;-66
2021/01/27 01:48:57;;;;;;;;;;;18.90;57.40;;;;;;5076423;28;1087;-66
2021/01/27 01:51:29;;;;;;;;;;;18.90;57.40;;;;;;5076002;28;1898;-66
2021/01/27 01:53:56;;;;;;;;;;;18.90;57.40;;;;;;5091783;28;1337;-66
2021/01/27 01:56:23;;;;;;;;;;;18.90;57.40;;;;;;5076024;28;1165;-66
2021/01/27 01:58:50;;;;;;;;;;;18.90;57.40;;;;;;5091370;28;1177;-68
2021/01/27 02:01:16;;;;;;;;;;;18.90;57.40;;;;;;5112221;28;1137;-68
2021/01/27 02:03:41;;;;;;;;;;;18.80;57.40;;;;;;5094872;28;1067;-66
2021/01/27 02:06:07;;;;;;;;;;;18.80;57.40;;;;;;5096176;28;1360;-66
2021/01/27 02:08:33;;;;;;;;;;;18.80;57.40;;;;;;5096471;28;1050;-66
2021/01/27 02:10:58;;;;;;;;;;;18.80;57.40;;;;;;5112150;28;1288;-66
2021/01/27 02:13:42;;;;;;;;;;;18.80;57.50;;;;;;5095876;28;1901;-66
2021/01/27 02:16:23;;;;;;;;;;;18.80;57.50;;;;;;5095927;28;1291;-65
2021/01/27 02:18:58;;;;;;;;;;;18.80;57.50;;;;;;5111923;28;1466;-65
2021/01/27 02:21:23;;;;;;;;;;;18.80;57.50;;;;;;5110388;28;1342;-66
2021/01/27 02:23:49;;;;;;;;;;;18.80;57.50;;;;;;5083902;28;1301;-69
2021/01/27 02:26:14;;;;;;;;;;;18.80;57.50;;;;;;5083899;28;1373;-69
2021/01/27 02:28:42;;;;;;;;;;;18.80;57.60;;;;;;5075673;28;1378;-68
2021/01/27 02:31:40;;;;;;;;;;;18.80;57.50;;;;;;5074815;28;1369;-68
2021/01/27 02:34:18;;;;;;;;;;;18.80;57.50;;;;;;5052151;28;1387;-69
2021/01/27 02:36:45;;;;;;;;;;;18.90;57.50;;;;;;5075617;28;1335;-68
2021/01/27 02:39:12;;;;;;;;;;;18.90;57.40;;;;;;5076033;28;1377;-69
2021/01/27 02:41:37;;;;;;;;;;;18.90;57.30;;;;;;5074991;28;1448;-68
2021/01/27 02:44:05;;;;;;;;;;;18.90;57.20;;;;;;5076321;28;1301;-68
2021/01/27 02:46:40;;;;;;;;;;;18.90;57.10;;;;;;5074949;28;1397;-68
2021/01/27 02:49:24;;;;;;;;;;;18.90;57.10;;;;;;5075302;28;1118;-68
2021/01/27 02:51:50;;;;;;;;;;;19.00;57.00;;;;;;5076125;28;1890;-69
2021/01/27 02:54:30;;;;;;;;;;;19.00;56.90;;;;;;5076133;28;1380;-69
2021/01/27 02:56:58;;;;;;;;;;;19.10;56.80;;;;;;5073721;28;1416;-68
2021/01/27 02:59:35;;;;;;;;;;;19.10;56.70;;;;;;5095319;28;1328;-68
2021/01/27 03:02:07;;;;;;;;;;;19.10;56.60;;;;;;5110836;28;1280;-68
2021/01/27 03:04:40;;;;;;;;;;;19.20;56.50;;;;;;5110724;28;1301;-68
2021/01/27 03:07:06;;;;;;;;;;;19.20;56.50;;;;;;5110967;28;1355;-68
2021/01/27 03:09:36;;;;;;;;;;;19.20;56.40;;;;;;5110936;28;1354;-69
2021/01/27 03:12:01;;;;;;;;;;;19.30;56.40;;;;;;5095100;28;1981;-68
2021/01/27 03:14:26;;;;;;;;;;;19.30;56.30;;;;;;5094933;28;1292;-68
2021/01/27 03:19:22;;;;;;;;;;;19.30;56.20;;;;;;5062478;28;2392;-67
2021/01/27 03:21:55;;;;;;;;;;;19.30;56.20;;;;;;5039771;28;1580;-67
2021/01/27 03:24:21;;;;;;;;;;;19.30;56.20;;;;;;5066282;28;1245;-66
2021/01/27 03:26:46;;;;;;;;;;;19.30;56.20;;;;;;5071046;28;1374;-66
2021/01/27 03:29:30;;;;;;;;;;;19.30;56.20;;;;;;5053266;28;1326;-65
2021/01/27 03:31:56;;;;;;;;;;;19.30;56.20;;;;;;5042269;28;1972;-65
2021/01/27 03:34:29;;;;;;;;;;;19.30;56.20;;;;;;5035632;28;1080;-65
2021/01/27 03:36:55;;;;;;;;;;;19.30;56.20;;;;;;5036003;28;1354;-64
2021/01/27 03:39:22;;;;;;;;;;;19.30;56.30;;;;;;5035331;28;1132;-64
2021/01/27 03:41:53;;;;;;;;;;;19.30;56.20;;;;;;5036070;28;1191;-65
2021/01/27 03:44:23;;;;;;;;;;;19.30;56.30;;;;;;5035501;28;1124;-65
2021/01/27 03:46:56;;;;;;;;;;;19.30;56.30;;;;;;5033002;28;1350;-65
2021/01/27 03:49:22;;;;;;;;;;;19.30;56.30;;;;;;5031215;28;1572;-67
2021/01/27 03:51:51;;;;;;;;;;;19.30;56.30;;;;;;5026405;28;1894;-68
2021/01/27 03:54:17;;;;;;;;;;;19.30;56.30;;;;;;5034523;28;1592;-67
2021/01/27 03:56:46;;;;;;;;;;;19.30;56.30;;;;;;5052362;28;1417;-67
2021/01/27 03:59:12;;;;;;;;;;;19.30;56.30;;;;;;5050605;28;1345;-67
2021/01/27 04:02:07;;;;;;;;;;;19.30;56.30;;;;;;5052623;28;1179;-67
2021/01/27 04:04:32;;;;;;;;;;;19.30;56.30;;;;;;5039283;28;1202;-68
2021/01/27 04:06:58;;;;;;;;;;;19.30;56.30;;;;;;5051699;28;1349;-68
2021/01/27 04:09:23;;;;;;;;;;;19.30;56.30;;;;;;5052209;28;1076;-68
2021/01/27 04:11:48;;;;;;;;;;;19.30;56.30;;;;;;5053155;28;1955;-68
2021/01/27 04:14:14;;;;;;;;;;;19.30;56.40;;;;;;5052853;28;1076;-68
2021/01/27 04:16:39;;;;;;;;;;;19.30;56.40;;;;;;5053192;28;1096;-67
2021/01/27 04:19:05;;;;;;;;;;;19.30;56.40;;;;;;5051527;28;1377;-68
2021/01/27 04:21:31;;;;;;;;;;;19.30;56.40;;;;;;5051354;28;1156;-67
2021/01/27 04:23:56;;;;;;;;;;;19.30;56.40;;;;;;5053117;28;1115;-67
2021/01/27 04:26:22;;;;;;;;;;;19.30;56.40;;;;;;5051093;28;1131;-67
2021/01/27 04:28:48;;;;;;;;;;;19.30;56.40;;;;;;5051898;28;1272;-68
2021/01/27 04:31:13;;;;;;;;;;;19.30;56.50;;;;;;5051307;28;1096;-68
2021/01/27 04:33:39;;;;;;;;;;;19.20;56.40;;;;;;5052377;28;1959;-68
2021/01/27 04:36:05;;;;;;;;;;;19.30;56.50;;;;;;5051342;28;1381;-68
2021/01/27 04:38:31;;;;;;;;;;;19.30;56.50;;;;;;5052838;28;1274;-68
2021/01/27 04:40:56;;;;;;;;;;;19.30;56.50;;;;;;5052624;28;1355;-67
2021/01/27 04:43:23;;;;;;;;;;;19.30;56.50;;;;;;5035137;28;1275;-68
2021/01/27 04:45:51;;;;;;;;;;;19.30;56.50;;;;;;5051740;28;1088;-67
2021/01/27 04:48:20;;;;;;;;;;;19.20;56.50;;;;;;5051427;28;1237;-68
2021/01/27 04:50:51;;;;;;;;;;;19.30;56.50;;;;;;5051045;28;1215;-68
2021/01/27 04:53:28;;;;;;;;;;;19.20;56.50;;;;;;5035209;28;1969;-69
2021/01/27 04:56:13;;;;;;;;;;;19.30;57.10;;;;;;5050833;28;1123;-69
2021/01/27 04:58:44;;;;;;;;;;;19.20;57.20;;;;;;5051500;28;1266;-68
2021/01/27 05:01:22;;;;;;;;;;;19.20;56.60;;;;;;5051213;28;1124;-68
2021/01/27 05:04:02;;;;;;;;;;;19.20;56.60;;;;;;5051734;28;1111;-68
2021/01/27 05:06:29;;;;;;;;;;;19.20;56.60;;;;;;5051701;28;1308;-68
2021/01/27 05:09:14;;;;;;;;;;;19.20;56.60;;;;;;5051454;28;1318;-68
2021/01/27 05:11:40;;;;;;;;;;;19.20;56.60;;;;;;5051422;28;1944;-69
2021/01/27 05:14:06;;;;;;;;;;;19.20;56.60;;;;;;5034367;28;1143;-68
2021/01/27 05:16:32;;;;;;;;;;;19.20;56.60;;;;;;5051585;28;1111;-68
2021/01/27 05:18:58;;;;;;;;;;;19.20;56.60;;;;;;5052343;28;1207;-68
2021/01/27 05:21:29;;;;;;;;;;;19.20;56.70;;;;;;5034131;28;1092;-68
2021/01/27 05:23:55;;;;;;;;;;;19.20;56.70;;;;;;5052164;28;1152;-68
2021/01/27 05:26:21;;;;;;;;;;;19.20;56.70;;;;;;5052150;28;1084;-68
2021/01/27 05:28:48;;;;;;;;;;;19.20;56.70;;;;;;5050945;28;1269;-68
2021/01/27 05:31:13;;;;;;;;;;;19.20;56.70;;;;;;5050883;28;1365;-68
2021/01/27 05:33:44;;;;;;;;;;;19.20;56.70;;;;;;5051721;28;1914;-67
2021/01/27 05:36:15;;;;;;;;;;;19.20;56.70;;;;;;5051911;28;1084;-68
2021/01/27 05:38:41;;;;;;;;;;;19.20;56.70;;;;;;5051638;28;1278;-68
2021/01/27 05:41:14;;;;;;;;;;;19.20;56.70;;;;;;5052150;28;1112;-68
2021/01/27 05:43:40;;;;;;;;;;;19.20;56.80;;;;;;5050417;28;1182;-68
2021/01/27 05:46:12;;;;;;;;;;;19.20;56.70;;;;;;5051876;28;1040;-68
2021/01/27 05:48:45;;;;;;;;;;;19.20;56.70;;;;;;5050459;28;1331;-67
2021/01/27 05:51:12;;;;;;;;;;;19.10;56.70;;;;;;5050287;28;1096;-68
2021/01/27 05:53:37;;;;;;;;;;;19.20;57.30;;;;;;5051535;28;1898;-67
2021/01/27 05:56:06;;;;;;;;;;;19.10;56.70;;;;;;5033942;28;1562;-69
2021/01/27 05:58:35;;;;;;;;;;;19.20;56.80;;;;;;5051512;28;1288;-67
2021/01/27 06:01:27;;;;;;;;;;;19.10;56.70;;;;;;5050705;28;1155;-68
2021/01/27 06:04:00;;;;;;;;;;;19.10;56.70;;;;;;5027917;28;1426;-68
2021/01/27 06:06:26;;;;;;;;;;;19.10;56.70;;;;;;5050509;28;1142;-68
2021/01/27 06:08:53;;;;;;;;;;;19.20;56.80;;;;;;5049949;28;1380;-68
2021/01/27 06:11:18;;;;;;;;;;;19.10;56.80;;;;;;5051965;28;1100;-69
2021/01/27 06:13:44;;;;;;;;;;;19.10;56.70;;;;;;5051443;28;1879;-67
2021/01/27 06:16:19;;;;;;;;;;;19.10;56.80;;;;;;5051106;28;1366;-67
2021/01/27 06:18:45;;;;;;;;;;;19.10;56.70;;;;;;5053864;28;1293;-68
2021/01/27 06:21:13;;;;;;;;;;;19.10;56.80;;;;;;5053820;28;1056;-67
2021/01/27 06:23:49;;;;;;;;;;;19.10;56.80;;;;;;5054005;28;1500;-68
2021/01/27 06:26:20;;;;;;;;;;;19.10;56.80;;;;;;5052947;28;1159;-68
2021/01/27 06:28:45;;;;;;;;;;;19.10;56.80;;;;;;5055059;28;1195;-67
2021/01/27 06:31:17;;;;;;;;;;;19.10;56.80;;;;;;5055246;28;1116;-68
2021/01/27 06:34:00;;;;;;;;;;;19.10;56.80;;;;;;5053915;28;1910;-67
2021/01/27 06:36:32;;;;;;;;;;;19.10;56.80;;;;;;5054561;28;1091;-67
2021/01/27 06:39:16;;;;;;;;;;;19.10;56.80;;;;;;5054833;28;1319;-68
2021/01/27 06:41:59;;;;;;;;;;;19.10;56.80;;;;;;5054687;28;1130;-68
2021/01/27 06:44:40;;;;;;;;;;;19.10;56.80;;;;;;5054998;28;1091;-68
2021/01/27 06:47:15;;;;;;;;;;;19.10;56.80;;;;;;5054346;28;1364;-68
2021/01/27 06:49:50;;;;;;;;;;;19.10;56.80;;;;;;5053663;28;1099;-67
2021/01/27 06:52:19;;;;;;;;;;;19.10;56.80;;;;;;5053288;28;1962;-68
2021/01/27 06:55:00;;;;;;;;;;;19.10;56.80;;;;;;5053283;28;1178;-68
2021/01/27 06:57:45;;;;;;;;;;;19.10;56.80;;;;;;5053187;28;1365;-68
2021/01/27 07:00:30;;;;;;;;;;;19.10;56.80;;;;;;5053011;28;1167;-68
2021/01/27 07:02:55;;;;;;;;;;;19.10;56.80;;;;;;5054786;28;1163;-68
2021/01/27 07:05:33;;;;;;;;;;;19.10;56.90;;;;;;5054867;28;1304;-68
2021/01/27 07:08:17;;;;;;;;;;;19.10;56.90;;;;;;5054026;28;1679;-68
2021/01/27 07:10:56;;;;;;;;;;;19.10;56.90;;;;;;5054602;28;1143;-67
2021/01/27 07:13:27;;;;;;;;;;;19.10;56.90;;;;;;5036349;28;1899;-68
2021/01/27 07:16:05;;;;;;;;;;;19.10;56.90;;;;;;5053832;28;1160;-68
2021/01/27 07:18:48;;;;;;;;;;;19.10;56.90;;;;;;5054086;28;1356;-68
2021/01/27 07:21:23;;;;;;;;;;;19.10;56.90;;;;;;5036729;28;1508;-67
2021/01/27 07:23:48;;;;;;;;;;;19.10;56.90;;;;;;5053957;28;1167;-68
2021/01/27 07:26:23;;;;;;;;;;;19.10;56.80;;;;;;5053603;28;1136;-68
2021/01/27 07:28:56;;;;;;;;;;;19.10;56.90;;;;;;5052890;28;1304;-67
2021/01/27 07:31:26;;;;;;;;;;;19.10;56.90;;;;;;5053028;28;1463;-67
2021/01/27 07:34:02;;;;;;;;;;;19.10;56.90;;;;;;5052816;28;1898;-69
2021/01/27 07:36:46;;;;;;;;;;;19.10;56.80;;;;;;5036053;28;1367;-68
2021/01/27 07:39:16;;;;;;;;;;;19.10;56.80;;;;;;5053708;28;1335;-68
2021/01/27 07:41:44;;;;;;;;;;;19.20;56.70;;;;;;5052988;28;1248;-68
2021/01/27 07:44:11;;;;;;;;;;;19.20;56.70;;;;;;5052073;28;1294;-68
2021/01/27 07:46:37;;;;;;;;;;;19.20;56.80;;;;;;5050576;28;1860;-68
2021/01/27 07:49:06;;;;;;;;;;;19.10;56.70;;;;;;5010323;28;1406;-69
2021/01/27 07:51:35;;;;;;;;;;;19.20;56.80;;;;;;5052281;28;1108;-69
2021/01/27 07:54:09;;;;;;;;;;;19.20;57.30;;;;;;5035788;28;1356;-69
2021/01/27 07:56:36;;;;;;;;;;;19.10;56.70;;;;;;5052477;28;1312;-69
2021/01/27 07:59:08;;;;;;;;;;;19.20;56.70;;;;;;5053259;28;1261;-69
2021/01/27 08:01:44;;;;;;;;;;;19.20;56.70;;;;;;5053752;28;1304;-68
2021/01/27 08:04:28;;;;;;;;;;;19.20;56.80;;;;;;5035221;28;1418;-68
2021/01/27 08:06:54;;;;;;;;;;;19.20;56.80;;;;;;5052941;28;1271;-67
2021/01/27 08:09:33;;;;;;;;;;;19.20;56.80;;;;;;5035374;28;1268;-69
2021/01/27 08:12:16;;;;;;;;;;;19.20;56.80;;;;;;5052796;28;1957;-68
2021/01/27 08:15:02;;;;;;;;;;;19.20;56.70;;;;;;5052574;28;1104;-69
2021/01/27 08:17:46;;;;;;;;;;;19.20;56.80;;;;;;5042206;28;1275;-68
2021/01/27 08:20:18;;;;;;;;;;;19.10;56.70;;;;;;5053118;28;1135;-68
2021/01/27 08:22:47;;;;;;;;;;;19.20;56.80;;;;;;5035699;28;1324;-68
2021/01/27 08:25:33;;;;;;;;;;;19.10;56.70;;;;;;5034391;28;1118;-69
2021/01/27 08:28:17;;;;;;;;;;;19.20;56.80;;;;;;5052732;28;1331;-68
2021/01/27 08:30:43;;;;;;;;;;;19.20;56.70;;;;;;5052724;28;1072;-68
2021/01/27 08:33:27;;;;;;;;;;;19.20;56.80;;;;;;5052749;28;1971;-69
2021/01/27 08:35:53;;;;;;;;;;;19.20;56.80;;;;;;5052561;28;1316;-68
2021/01/27 08:38:21;;;;;;;;;;;19.20;56.70;;;;;;5051416;28;1419;-68
2021/01/27 08:40:47;;;;;;;;;;;19.10;56.70;;;;;;5034889;28;1194;-69
2021/01/27 08:43:12;;;;;;;;;;;19.10;56.70;;;;;;5035150;28;1331;-69
2021/01/27 08:45:38;;;;;;;;;;;19.20;56.80;;;;;;5034305;28;1343;-68
2021/01/27 08:48:04;;;;;;;;;;;19.20;56.80;;;;;;5038855;28;1341;-69
2021/01/27 08:50:35;;;;;;;;;;;19.10;56.70;;;;;;5051220;28;1362;-69
2021/01/27 08:53:07;;;;;;;;;;;19.10;56.70;;;;;;5052870;28;1905;-69
2021/01/27 08:55:37;;;;;;;;;;;19.20;56.80;;;;;;5034916;28;1287;-68
2021/01/27 08:58:21;;;;;;;;;;;19.10;56.70;;;;;;5051486;28;1346;-68
2021/01/27 09:00:47;;;;;;;;;;;19.10;56.70;;;;;;5052829;28;1323;-68
2021/01/27 09:03:31;;;;;;;;;;;19.20;56.80;;;;;;5052803;28;1083;-67
2021/01/27 09:05:56;;;;;;;;;;;19.10;57.30;;;;;;5052647;28;1292;-69
2021/01/27 09:08:25;;;;;;;;;;;19.10;56.70;;;;;;5051074;28;1358;-69
2021/01/27 09:10:54;;;;;;;;;;;19.10;56.70;;;;;;5034034;28;1455;-69
2021/01/27 09:13:39;;;;;;;;;;;19.10;56.70;;;;;;5052593;28;1902;-69
2021/01/27 09:16:05;;;;;;;;;;;19.10;56.80;;;;;;5052192;28;1300;-67
2021/01/27 09:18:30;;;;;;;;;;;19.10;56.70;;;;;;5090695;22;2323;-74
2021/01/27 09:21:02;;;;;;;;;;;19.10;56.70;;;;;;5087653;28;1565;-74
2021/01/27 09:23:27;;;;;;;;;;;19.10;56.70;;;;;;5092091;28;1473;-74
2021/01/27 09:25:54;;;;;;;;;;;19.10;56.70;;;;;;5091065;28;1169;-74
2021/01/27 09:28:21;;;;;;;;;;;19.10;56.70;;;;;;5075818;28;1374;-74
2021/01/27 09:30:46;;;;;;;;;;;19.10;56.70;;;;;;5070931;28;1391;-74
2021/01/27 09:33:12;;;;;;;;;;;19.10;56.80;;;;;;5071024;28;1910;-74
2021/01/27 09:35:37;;;;;;;;;;;19.20;56.70;;;;;;5083486;28;1099;-74
2021/01/27 09:38:05;;;;;;;;;;;19.20;56.60;;;;;;5090649;28;1366;-74
2021/01/27 09:40:30;;;;;;;;;;;19.20;56.60;;;;;;5091228;28;1305;-74
2021/01/27 09:42:57;;;;;;;;;;;19.30;56.50;;;;;;5092513;28;1130;-74
2021/01/27 09:45:24;;;;;;;;;;;19.30;56.40;;;;;;5074178;28;1314;-74
2021/01/27 09:47:50;;;;;;;;;;;19.30;56.30;;;;;;5072108;28;1446;-74
2021/01/27 09:50:16;;;;;;;;;;;19.30;56.20;;;;;;5079635;28;1348;-74
2021/01/27 09:52:42;;;;;;;;;;;19.30;56.20;;;;;;5095278;28;1901;-74
2021/01/27 09:55:08;;;;;;;;;;;19.40;56.10;;;;;;5090749;28;1186;-74
2021/01/27 09:57:33;;;;;;;;;;;19.40;56.10;;;;;;5087706;28;1291;-74
2021/01/27 09:59:59;;;;;;;;;;;19.40;56.00;;;;;;5084246;28;1209;-74
2021/01/27 10:02:28;;;;;;;;;;;19.40;56.00;;;;;;5099726;28;1410;-74
2021/01/27 10:04:53;;;;;;;;;;;19.40;55.90;;;;;;5086156;28;1098;-73
2021/01/27 10:07:22;;;;;;;;;;;19.40;55.90;;;;;;5084901;28;1350;-74
2021/01/27 10:09:51;;;;;;;;;;;19.40;55.90;;;;;;5087895;28;1388;-74
2021/01/27 10:12:23;;;;;;;;;;;19.50;56.00;;;;;;5085839;28;1956;-74
2021/01/27 10:14:49;;;;;;;;;;;19.60;55.90;;;;;;5097064;28;1244;-74
2021/01/27 10:17:14;;;;;;;;;;;19.70;55.70;;;;;;5091433;28;1332;-73
2021/01/27 10:19:43;;;;;;;;;;;19.70;55.50;;;;;;5094133;28;877;-75
2021/01/27 10:22:09;;;;;;;;;;;19.80;55.40;;;;;;5094447;28;985;-75
2021/01/27 10:24:48;;;;;;;;;;;19.90;55.10;;;;;;5094062;28;1252;-75
2021/01/27 10:27:17;;;;;;;;;;;20.10;55.00;;;;;;5094989;28;1350;-75
2021/01/27 10:29:43;;;;;;;;;;;20.10;54.80;;;;;;5094490;28;996;-74
2021/01/27 10:32:20;;;;;;;;;;;20.20;54.60;;;;;;5094079;28;1902;-74
2021/01/27 10:34:46;;;;;;;;;;;20.30;54.40;;;;;;5089896;28;1225;-74
2021/01/27 10:37:27;;;;;;;;;;;20.40;54.30;;;;;;5073847;28;807;-74
2021/01/27 10:40:09;;;;;;;;;;;20.40;54.20;;;;;;5094771;28;862;-75
2021/01/27 10:42:35;;;;;;;;;;;20.50;54.10;;;;;;5093909;28;1279;-75
2021/01/27 10:45:11;;;;;;;;;;;20.50;53.90;;;;;;5095243;28;771;-75
2021/01/27 10:47:38;;;;;;;;;;;20.60;53.90;;;;;;5060500;28;1272;-74
2021/01/27 10:50:04;;;;;;;;;;;20.60;53.80;;;;;;5083062;28;930;-75
2021/01/27 10:52:29;;;;;;;;;;;20.60;53.70;;;;;;5080226;28;1957;-75
2021/01/27 10:54:59;;;;;;;;;;;20.70;53.60;;;;;;5066069;28;1213;-75
2021/01/27 10:57:24;;;;;;;;;;;20.70;53.50;;;;;;5091136;28;1487;-75
2021/01/27 10:59:51;;;;;;;;;;;20.70;53.50;;;;;;5103232;28;1197;-75
2021/01/27 11:02:17;;;;;;;;;;;20.70;53.50;;;;;;5096187;28;1296;-74
2021/01/27 11:04:42;;;;;;;;;;;20.80;53.50;;;;;;5092106;28;1162;-75
2021/01/27 11:07:08;;;;;;;;;;;20.80;53.40;;;;;;5093272;28;1328;-75
2021/01/27 11:09:33;;;;;;;;;;;20.80;53.40;;;;;;5093229;28;1315;-75
2021/01/27 11:11:58;;;;;;;;;;;20.80;53.40;;;;;;5094646;28;1898;-74
2021/01/27 11:14:24;;;;;;;;;;;20.80;53.30;;;;;;5094395;28;1198;-75
2021/01/27 11:16:49;;;;;;;;;;;20.80;53.30;;;;;;5093189;28;845;-75
2021/01/27 11:19:15;;;;;;;;;;;20.90;53.30;;;;;;5093608;28;1290;-74
2021/01/27 11:21:40;;;;;;;;;;;20.90;53.20;;;;;;5090155;28;1673;-75
2021/01/27 11:24:06;;;;;;;;;;;20.90;53.20;;;;;;5083987;28;1452;-75
2021/01/27 11:26:31;;;;;;;;;;;20.90;53.20;;;;;;5093331;28;1440;-75
2021/01/27 11:28:57;;;;;;;;;;;21.00;53.10;;;;;;5081470;28;1291;-74
2021/01/27 11:31:24;;;;;;;;;;;21.00;53.10;;;;;;5081023;28;1107;-78
2021/01/27 11:33:49;;;;;;;;;;;21.00;53.10;;;;;;5084480;28;1973;-77
2021/01/27 11:36:17;;;;;;;;;;;21.00;53.00;;;;;;5096331;28;1285;-77
2021/01/27 11:38:46;;;;;;;;;;;21.10;53.10;;;;;;5094247;28;1314;-77
2021/01/27 11:41:12;;;;;;;;;;;21.00;53.00;;;;;;5080854;28;1157;-76
2021/01/27 11:43:41;;;;;;;;;;;21.10;53.00;;;;;;5093910;28;1304;-75
2021/01/27 11:46:07;;;;;;;;;;;21.10;53.00;;;;;;5093833;28;1134;-76
2021/01/27 11:48:33;;;;;;;;;;;21.10;53.00;;;;;;5081066;28;1279;-76
2021/01/27 11:50:59;;;;;;;;;;;21.10;53.00;;;;;;5091962;28;1115;-76
2021/01/27 11:53:24;;;;;;;;;;;21.10;53.00;;;;;;5093654;28;1980;-75
2021/01/27 11:55:50;;;;;;;;;;;21.10;53.00;;;;;;5093503;28;1323;-76
2021/01/27 11:58:15;;;;;;;;;;;21.10;53.00;;;;;;5081150;28;1267;-75
2021/01/27 12:00:40;;;;;;;;;;;21.10;53.10;;;;;;5090054;28;1253;-75
2021/01/27 12:03:06;;;;;;;;;;;21.10;53.10;;;;;;5092804;28;1366;-75
2021/01/27 12:05:31;;;;;;;;;;;21.10;53.10;;;;;;5092642;28;1195;-74
2021/01/27 12:07:57;;;;;;;;;;;21.10;53.20;;;;;;5075188;28;1443;-75
2021/01/27 12:10:25;;;;;;;;;;;21.00;53.10;;;;;;5089366;28;1165;-75
2021/01/27 12:12:51;;;;;;;;;;;21.00;53.20;;;;;;5072698;28;1901;-75
2021/01/27 12:15:16;;;;;;;;;;;21.00;53.20;;;;;;5089672;28;1237;-78
2021/01/27 12:17:42;;;;;;;;;;;21.00;53.30;;;;;;5084751;28;1900;-77
2021/01/27 12:20:09;;;;;;;;;;;21.00;53.30;;;;;;5108032;28;1197;-77
2021/01/27 12:22:34;;;;;;;;;;;21.00;54.00;;;;;;5092711;28;1226;-77
2021/01/27 12:25:00;;;;;;;;;;;21.00;53.40;;;;;;5092370;28;1277;-77
2021/01/27 12:27:25;;;;;;;;;;;20.90;53.50;;;;;;5092874;28;1358;-77
2021/01/27 12:29:50;;;;;;;;;;;20.90;53.40;;;;;;5094242;28;1119;-77
2021/01/27 12:32:16;;;;;;;;;;;20.90;53.50;;;;;;5083027;28;1906;-77
2021/01/27 12:34:41;;;;;;;;;;;20.90;53.50;;;;;;5075411;28;1178;-77
2021/01/27 12:37:07;;;;;;;;;;;20.80;53.60;;;;;;5075946;28;1169;-77
2021/01/27 12:39:32;;;;;;;;;;;20.80;53.60;;;;;;5092316;28;1673;-76
2021/01/27 12:41:58;;;;;;;;;;;20.80;53.70;;;;;;5093296;28;1368;-76
2021/01/27 12:44:23;;;;;;;;;;;20.80;53.70;;;;;;5092767;28;1313;-76
2021/01/27 12:46:49;;;;;;;;;;;20.80;53.80;;;;;;5091501;28;1181;-76
2021/01/27 12:49:14;;;;;;;;;;;20.80;53.80;;;;;;5093132;28;1325;-76
2021/01/27 12:51:40;;;;;;;;;;;20.80;53.90;;;;;;5074824;28;1206;-76
2021/01/27 12:54:05;;;;;;;;;;;20.80;53.90;;;;;;5094219;28;1898;-76
2021/01/27 12:56:31;;;;;;;;;;;20.70;53.90;;;;;;5093451;28;1333;-76
2021/01/27 12:58:56;;;;;;;;;;;20.70;54.00;;;;;;5091617;28;1296;-76
2021/01/27 13:01:22;;;;;;;;;;;20.70;54.00;;;;;;5091794;28;1360;-76
2021/01/27 13:03:48;;;;;;;;;;;20.70;54.00;;;;;;5091083;28;1312;-76
2021/01/27 13:06:13;;;;;;;;;;;20.70;54.10;;;;;;5073952;28;1376;-76
2021/01/27 13:08:39;;;;;;;;;;;20.60;54.10;;;;;;5074769;28;1347;-76
2021/01/27 13:11:04;;;;;;;;;;;20.60;54.10;;;;;;5091506;28;1402;-76
2021/01/27 13:13:30;;;;;;;;;;;20.60;54.20;;;;;;5090698;28;1890;-76
2021/01/27 13:15:55;;;;;;;;;;;20.60;54.20;;;;;;5091451;28;1312;-76
2021/01/27 13:18:21;;;;;;;;;;;20.60;54.30;;;;;;5091184;28;1306;-76
2021/01/27 13:20:46;;;;;;;;;;;20.60;54.30;;;;;;5091404;28;1107;-76
2021/01/27 13:23:12;;;;;;;;;;;20.50;54.30;;;;;;5091185;28;1310;-76
2021/01/27 13:25:38;;;;;;;;;;;20.50;54.40;;;;;;5091796;28;1085;-76
2021/01/27 13:28:03;;;;;;;;;;;20.50;54.40;;;;;;5084258;28;1430;-76
2021/01/27 13:30:29;;;;;;;;;;;20.50;54.40;;;;;;5095692;28;1397;-76
2021/01/27 13:32:55;;;;;;;;;;;20.50;54.50;;;;;;5095603;28;1959;-76
2021/01/27 13:35:21;;;;;;;;;;;20.50;54.40;;;;;;5077897;28;1293;-76
2021/01/27 13:37:47;;;;;;;;;;;20.50;54.50;;;;;;5094934;28;1457;-76
2021/01/27 13:40:12;;;;;;;;;;;20.40;54.50;;;;;;5095432;28;1262;-76
2021/01/27 13:42:38;;;;;;;;;;;20.40;54.60;;;;;;5096453;28;1311;-76
2021/01/27 13:45:04;;;;;;;;;;;20.40;54.60;;;;;;5094993;28;1380;-76
2021/01/27 13:47:29;;;;;;;;;;;20.40;54.70;;;;;;5094388;28;1287;-76
2021/01/27 13:49:55;;;;;;;;;;;20.40;54.70;;;;;;5078406;28;1340;-77
2021/01/27 13:52:20;;;;;;;;;;;20.40;54.80;;;;;;5097114;28;1969;-77
2021/01/27 13:54:45;;;;;;;;;;;20.30;54.80;;;;;;5096633;28;1083;-77
2021/01/27 13:57:11;;;;;;;;;;;20.30;54.80;;;;;;5079509;28;1276;-77
2021/01/27 13:59:36;;;;;;;;;;;20.30;54.80;;;;;;5084829;28;1327;-76
2021/01/27 14:02:02;;;;;;;;;;;20.30;54.90;;;;;;5095261;28;1776;-77
2021/01/27 14:04:27;;;;;;;;;;;20.30;54.90;;;;;;5090858;28;1260;-76
2021/01/27 14:06:54;;;;;;;;;;;20.30;55.00;;;;;;5095403;28;1113;-78
2021/01/27 14:09:19;;;;;;;;;;;20.20;55.50;;;;;;5112547;28;1237;-78
2021/01/27 14:11:45;;;;;;;;;;;20.20;55.00;;;;;;5082016;28;1126;-78
2021/01/27 14:14:10;;;;;;;;;;;20.20;55.00;;;;;;5095674;28;1973;-78
2021/01/27 14:16:36;;;;;;;;;;;20.20;55.10;;;;;;5081697;28;1165;-78
2021/01/27 14:19:01;;;;;;;;;;;20.20;54.60;;;;;;5086954;28;1275;-76
2021/01/27 14:21:27;;;;;;;;;;;20.10;54.30;;;;;;5092047;28;1090;-77
2021/01/27 14:23:52;;;;;;;;;;;20.20;54.50;;;;;;5095167;28;1137;-78
2021/01/27 14:26:20;;;;;;;;;;;20.10;54.70;;;;;;5093897;28;1416;-77
2021/01/27 14:28:45;;;;;;;;;;;20.10;54.70;;;;;;5067843;28;1258;-78
2021/01/27 14:31:11;;;;;;;;;;;20.10;54.80;;;;;;5095830;28;1169;-78
2021/01/27 14:33:36;;;;;;;;;;;20.10;54.90;;;;;;5086360;28;1913;-77
2021/01/27 14:36:02;;;;;;;;;;;20.10;54.90;;;;;;5055857;28;1345;-77
2021/01/27 14:38:27;;;;;;;;;;;20.10;54.90;;;;;;5092525;28;1200;-78
2021/01/27 14:40:53;;;;;;;;;;;20.10;54.90;;;;;;5084470;28;990;-76
2021/01/27 14:43:18;;;;;;;;;;;20.10;55.00;;;;;;5077876;28;1282;-76